createdAt,value
2023-03-30T00:01:56.623Z,1.8
2023-03-30T00:06:56.631Z,1.9
2023-03-30T00:11:56.627Z,2.1
2023-03-30T00:16:56.721Z,2.1
2023-03-30T00:21:56.696Z,2
2023-03-30T00:26:56.658Z,2
2023-03-30T00:32:15.252Z,2
2023-03-30T00:37:56.664Z,2
2023-03-30T00:43:15.197Z,1.9
2023-03-30T00:48:15.177Z,1.9
2023-03-30T00:53:56.645Z,1.8
2023-03-30T00:59:15.178Z,1.9
2023-03-30T01:04:15.198Z,1.7
2023-03-30T01:09:56.640Z,1.8
2023-03-30T01:14:56.648Z,1.8
2023-03-30T01:20:15.188Z,1.9
2023-03-30T01:25:56.646Z,2.1
2023-03-30T01:30:56.686Z,2.5
2023-03-30T01:35:56.795Z,2.3
2023-03-30T01:40:56.740Z,2.4
2023-03-30T01:46:15.247Z,2.4
2023-03-30T01:51:15.189Z,2.6
2023-03-30T01:56:56.706Z,2.5
2023-03-30T02:02:15.267Z,2.6
2023-03-30T02:07:56.661Z,2.5
2023-03-30T02:13:15.164Z,2.4
2023-03-30T02:18:15.158Z,2.3
2023-03-30T02:23:15.199Z,2.1
2023-03-30T02:28:56.640Z,1.9
2023-03-30T02:33:56.678Z,1.8
2023-03-30T02:39:15.183Z,1.5
2023-03-30T02:44:15.445Z,1.2
2023-03-30T02:49:56.647Z,1.1
2023-03-30T02:55:15.213Z,0.9
2023-03-30T03:00:59.253Z,0.6
2023-03-30T03:05:56.674Z,0.6
2023-03-30T03:11:15.208Z,0.4
2023-03-30T03:16:56.755Z,0.5
2023-03-30T03:22:15.193Z,0.2
2023-03-30T03:27:56.651Z,0.1
2023-03-30T03:32:56.703Z,0
2023-03-30T03:38:15.195Z,0
2023-03-30T03:43:15.193Z,0
2023-03-30T03:48:15.185Z,0
2023-03-30T03:53:15.183Z,0
2023-03-30T03:58:56.678Z,0
2023-03-30T04:03:56.677Z,0
2023-03-30T04:09:15.208Z,0
2023-03-30T04:14:56.655Z,0
2023-03-30T04:19:56.685Z,0
2023-03-30T04:24:56.667Z,0
2023-03-30T04:29:56.685Z,0
2023-03-30T04:35:15.202Z,0
2023-03-30T04:40:15.229Z,0
2023-03-30T04:45:56.742Z,0
2023-03-30T04:50:56.688Z,0
2023-03-30T04:56:15.223Z,0
2023-03-30T05:01:15.242Z,0
2023-03-30T05:06:56.670Z,0
2023-03-30T05:12:15.232Z,0
2023-03-30T05:17:56.754Z,0
2023-03-30T05:23:15.221Z,0
2023-03-30T05:28:15.220Z,0
2023-03-30T05:33:56.664Z,0
2023-03-30T05:38:56.702Z,0
2023-03-30T05:44:15.271Z,0
2023-03-30T05:49:15.212Z,0
2023-03-30T05:54:56.857Z,0
2023-03-30T06:00:15.206Z,0
2023-03-30T06:05:56.640Z,0
2023-03-30T06:10:56.702Z,0
2023-03-30T06:16:15.233Z,0
2023-03-30T06:21:56.695Z,0
2023-03-30T06:26:56.693Z,0
2023-03-30T06:32:15.244Z,0
2023-03-30T06:37:56.694Z,0
2023-03-30T06:42:56.703Z,0
2023-03-30T06:48:15.215Z,0
2023-03-30T06:53:15.227Z,0
2023-03-30T06:58:56.706Z,0
2023-03-30T07:04:15.274Z,0
2023-03-30T07:09:15.236Z,0
2023-03-30T07:14:15.518Z,0
2023-03-30T07:20:56.707Z,0
2023-03-30T07:26:15.267Z,0
2023-03-30T07:31:56.827Z,0
2023-03-30T07:37:20.236Z,0
2023-03-30T07:42:15.241Z,0
2023-03-30T07:47:56.818Z,0
2023-03-30T07:53:15.204Z,0
2023-03-30T07:58:15.241Z,0
2023-03-30T08:03:56.827Z,0.2
2023-03-30T08:08:56.834Z,0.4
2023-03-30T08:13:56.852Z,0.9
2023-03-30T08:19:15.251Z,1
2023-03-30T08:24:56.698Z,0.9
2023-03-30T08:29:56.699Z,0.9
2023-03-30T08:34:56.713Z,0.9
2023-03-30T08:39:56.761Z,0.8
2023-03-30T08:45:15.231Z,1.3
2023-03-30T08:50:15.269Z,1.1
2023-03-30T08:55:56.710Z,1.3
2023-03-30T09:01:15.257Z,1.7
2023-03-30T09:06:56.736Z,2
2023-03-30T09:12:15.268Z,2.4
2023-03-30T09:17:56.792Z,2.3
2023-03-30T09:23:15.261Z,2.5
2023-03-30T09:28:56.704Z,2.9
2023-03-30T09:33:56.729Z,3.2
2023-03-30T09:39:15.258Z,3.7
2023-03-30T09:44:56.733Z,3.1
2023-03-30T09:50:15.298Z,3.3
2023-03-30T09:55:56.730Z,3
2023-03-30T10:01:15.278Z,1.9
2023-03-30T10:07:00.422Z,2.5
2023-03-30T10:12:15.233Z,1.1
2023-03-30T10:17:15.256Z,0
2023-03-30T10:22:15.282Z,0
2023-03-30T10:27:56.747Z,0
2023-03-30T10:33:15.256Z,0
2023-03-30T10:38:15.260Z,0
2023-03-30T10:43:56.729Z,0
2023-03-30T10:49:15.280Z,0
2023-03-30T10:54:56.736Z,0
2023-03-30T10:59:59.322Z,0
2023-03-30T11:05:15.266Z,0
2023-03-30T11:10:56.757Z,0
2023-03-30T11:16:15.329Z,0
2023-03-30T11:21:15.298Z,0.8
2023-03-30T11:26:15.283Z,0.2
2023-03-30T11:31:56.802Z,0
2023-03-30T11:36:56.764Z,0.7
2023-03-30T11:42:15.278Z,1.2
2023-03-30T11:47:56.757Z,1.2
2023-03-30T11:52:56.766Z,1
2023-03-30T11:58:15.301Z,0.5
2023-03-30T12:03:56.930Z,0.3
2023-03-30T12:08:56.773Z,0
2023-03-30T12:14:15.266Z,1.4
2023-03-30T12:19:15.281Z,1.8
2023-03-30T12:24:15.294Z,1.9
2023-03-30T12:30:03.199Z,2.9
2023-03-30T12:35:15.250Z,4
2023-03-30T12:40:15.263Z,3.8
2023-03-30T12:45:15.384Z,4.6
2023-03-30T12:50:15.304Z,4.9
2023-03-30T12:55:56.861Z,4.7
2023-03-30T13:01:15.290Z,4.4
2023-03-30T13:12:06.762Z,5.6
2023-03-30T13:17:15.466Z,4.7
2023-03-30T13:22:56.764Z,5.6
2023-03-30T13:28:15.273Z,4.9
2023-03-30T13:33:56.812Z,5
2023-03-30T13:39:15.278Z,5.8
2023-03-30T13:44:57.443Z,5.8
2023-03-30T13:49:56.796Z,5.4
2023-03-30T13:55:15.292Z,5.8
2023-03-30T14:00:15.304Z,4.9
2023-03-30T14:05:56.782Z,4.1
2023-03-30T14:10:56.800Z,1.9
2023-03-30T14:16:15.283Z,0.6
2023-03-30T14:21:15.279Z,0
2023-03-30T14:26:15.335Z,0
2023-03-30T14:32:07.374Z,1.4
2023-03-30T14:37:15.321Z,1.5
2023-03-30T14:42:15.329Z,2.9
2023-03-30T14:47:15.346Z,3.3
2023-03-30T14:52:56.757Z,3.9
2023-03-30T14:57:56.779Z,4
2023-03-30T15:02:57.038Z,4.1
2023-03-30T15:07:56.798Z,4.1
2023-03-30T15:13:15.298Z,4.3
2023-03-30T15:18:15.318Z,4.3
2023-03-30T15:23:15.315Z,4.9
2023-03-30T15:28:56.788Z,5
2023-03-30T15:33:56.806Z,5.5
2023-03-30T15:38:56.804Z,6.4
2023-03-30T15:44:15.300Z,5.5
2023-03-30T15:49:15.350Z,6.4
2023-03-30T15:54:15.322Z,6.2
2023-03-30T15:59:15.318Z,6.2
2023-03-30T16:04:15.346Z,6.4
2023-03-30T16:09:56.810Z,5.5
2023-03-30T16:15:15.340Z,5
2023-03-30T16:20:56.777Z,4.2
2023-03-30T16:25:56.807Z,4.3
2023-03-30T16:30:56.804Z,4.4
2023-03-30T16:35:56.867Z,4
2023-03-30T16:41:15.324Z,4.6
2023-03-30T16:46:56.794Z,4.7
2023-03-30T16:52:15.354Z,5
2023-03-30T16:57:56.799Z,5.1
2023-03-30T17:02:56.870Z,4.5
2023-03-30T17:07:56.803Z,4.6
2023-03-30T17:12:56.833Z,4.8
2023-03-30T17:18:15.351Z,4.9
2023-03-30T17:23:15.352Z,4.5
2023-03-30T17:28:57.203Z,4.6
2023-03-30T17:34:15.335Z,4.8
2023-03-30T17:39:15.367Z,4.1
2023-03-30T17:44:56.796Z,4
2023-03-30T17:49:56.800Z,4.3
2023-03-30T17:54:56.889Z,3.9
2023-03-30T18:00:15.356Z,4
2023-03-30T18:05:15.366Z,3.3
2023-03-30T18:10:56.864Z,3.4
2023-03-30T18:16:15.392Z,2.4
2023-03-30T18:21:15.357Z,2.8
2023-03-30T18:26:15.348Z,2.5
2023-03-30T18:31:56.887Z,2.7
2023-03-30T18:36:56.842Z,2.6
2023-03-30T18:41:56.845Z,2.3
2023-03-30T18:47:15.362Z,2
2023-03-30T18:52:56.876Z,1.7
2023-03-30T18:58:15.358Z,1.5
2023-03-30T19:03:56.835Z,1.4
2023-03-30T19:09:15.368Z,1.2
2023-03-30T19:14:56.827Z,1.1
2023-03-30T19:19:56.825Z,1.3
2023-03-30T19:24:56.843Z,0.7
2023-03-30T19:30:15.364Z,0.7
2023-03-30T19:35:56.875Z,0.7
2023-03-30T19:41:15.354Z,0.3
2023-03-30T19:46:56.845Z,0.4
2023-03-30T19:52:15.405Z,0.6
2023-03-30T19:57:56.820Z,0.6
2023-03-30T20:02:56.939Z,0.3
2023-03-30T20:07:56.834Z,0
2023-03-30T20:13:15.383Z,0
2023-03-30T20:18:56.825Z,0
2023-03-30T20:23:56.852Z,0
2023-03-30T20:29:15.383Z,0
2023-03-30T20:34:15.394Z,0
2023-03-30T20:39:56.837Z,0
2023-03-30T20:45:15.371Z,0
2023-03-30T20:50:15.388Z,0
2023-03-30T20:55:15.395Z,0
2023-03-30T21:00:56.916Z,0
2023-03-30T21:06:15.360Z,0
2023-03-30T21:11:15.388Z,0
2023-03-30T21:16:56.952Z,0
2023-03-30T21:22:15.355Z,0
2023-03-30T21:27:15.400Z,0
2023-03-30T21:33:08.122Z,0
2023-03-30T21:38:15.386Z,0
2023-03-30T21:43:56.842Z,0
2023-03-30T21:49:15.379Z,0
2023-03-30T21:54:56.875Z,0
2023-03-30T22:00:15.390Z,0
2023-03-30T22:05:56.853Z,0
2023-03-30T22:10:56.860Z,0
2023-03-30T22:16:15.426Z,0
2023-03-30T22:21:56.853Z,0
2023-03-30T22:26:56.866Z,0
2023-03-30T22:31:56.893Z,0
2023-03-30T22:36:56.938Z,0
2023-03-30T22:42:15.345Z,0
2023-03-30T22:47:15.423Z,0
2023-03-30T22:52:56.845Z,0
2023-03-30T22:57:56.880Z,0
2023-03-30T23:03:15.621Z,0
2023-03-30T23:08:56.842Z,0
2023-03-30T23:13:56.866Z,0
2023-03-30T23:19:15.356Z,0
2023-03-30T23:24:15.413Z,0
2023-03-30T23:29:56.844Z,0
2023-03-30T23:34:56.909Z,0
2023-03-30T23:40:15.359Z,0
2023-03-30T23:45:15.366Z,0
2023-03-30T23:50:15.383Z,0
2023-03-30T23:55:15.397Z,0
